createdAt,value
2022-11-05T00:00:15.382Z,101100.22
2022-11-05T00:03:00.240Z,101102.88
2022-11-05T00:05:45.104Z,101102.47
2022-11-05T00:08:30.199Z,101096.00
2022-11-05T00:10:56.866Z,101108.50
2022-11-05T00:13:41.959Z,101104.00
2022-11-05T00:16:26.827Z,101101.31
2022-11-05T00:19:09.013Z,101097.91
2022-11-05T00:21:56.394Z,101110.41
2022-11-05T00:24:41.888Z,101114.22
2022-11-05T00:27:09.172Z,101113.88
2022-11-05T00:29:35.592Z,101110.09
2022-11-05T00:32:02.000Z,101113.09
2022-11-05T00:34:28.380Z,101116.16
2022-11-05T00:36:54.791Z,101119.56
2022-11-05T00:39:21.172Z,101120.34
2022-11-05T00:42:07.535Z,101113.16
2022-11-05T00:44:52.623Z,101118.81
2022-11-05T00:47:37.694Z,101121.50
2022-11-05T00:50:04.372Z,101126.03
2022-11-05T00:52:49.031Z,101122.28
2022-11-05T00:55:15.888Z,101114.66
2022-11-05T00:57:42.316Z,101123.03
2022-11-05T01:00:09.320Z,101126.06
2022-11-05T01:02:35.810Z,101130.63
2022-11-05T01:05:02.286Z,101130.63
2022-11-05T01:07:28.707Z,101130.63
2022-11-05T01:09:55.072Z,101137.84
2022-11-05T01:12:21.626Z,101147.34
2022-11-05T01:14:48.023Z,101155.66
2022-11-05T01:17:14.461Z,101144.28
2022-11-05T01:19:40.927Z,101151.50
2022-11-05T01:22:07.327Z,101151.16
2022-11-05T01:24:33.731Z,101160.63
2022-11-05T01:27:00.179Z,101153.03
2022-11-05T01:29:26.593Z,101158.72
2022-11-05T01:31:53.036Z,101161.00
2022-11-05T01:34:19.436Z,101162.53
2022-11-05T01:36:45.835Z,101165.53
2022-11-05T01:39:12.428Z,101165.53
2022-11-05T01:41:39.049Z,101161.38
2022-11-05T01:44:05.612Z,101165.53
2022-11-05T01:46:39.135Z,101157.94
2022-11-05T01:49:17.817Z,101165.56
2022-11-05T01:51:44.944Z,101156.44
2022-11-05T01:54:14.924Z,101162.88
2022-11-05T01:56:44.091Z,101159.44
2022-11-05T01:59:14.670Z,101169.72
2022-11-05T02:01:41.311Z,101168.97
2022-11-05T02:04:10.571Z,101164.78
2022-11-05T02:06:39.343Z,101164.75
2022-11-05T02:09:13.460Z,101166.34
2022-11-05T02:11:39.840Z,101160.22
2022-11-05T02:14:06.400Z,101142.81
2022-11-05T02:16:48.332Z,101162.50
2022-11-05T02:19:53.500Z,101157.94
2022-11-05T02:22:39.248Z,101154.16
2022-11-05T02:25:11.827Z,101156.03
2022-11-05T02:28:07.094Z,101167.78
2022-11-05T02:30:45.613Z,101167.41
2022-11-05T02:33:26.741Z,101167.78
2022-11-05T02:36:09.553Z,101175.34
2022-11-05T02:38:41.442Z,101173.06
2022-11-05T02:41:17.261Z,101179.50
2022-11-05T02:43:57.967Z,101187.50
2022-11-05T02:46:42.495Z,101179.13
2022-11-05T02:49:18.024Z,101176.81
2022-11-05T02:52:09.283Z,101178.34
2022-11-05T02:54:43.272Z,101176.03
2022-11-05T02:57:09.704Z,101178.69
2022-11-05T02:59:36.070Z,101177.16
2022-11-05T03:02:03.573Z,101169.56
2022-11-05T03:04:30.750Z,101150.19
2022-11-05T03:07:24.956Z,101166.91
2022-11-05T03:10:09.051Z,101167.63
2022-11-05T03:12:50.718Z,101170.69
2022-11-05T03:15:25.698Z,101177.13
2022-11-05T03:18:16.008Z,101170.69
2022-11-05T03:21:01.352Z,101170.69
2022-11-05T03:24:08.237Z,101168.78
2022-11-05T03:26:42.809Z,101182.03
2022-11-05T03:29:13.159Z,101188.84
2022-11-05T03:31:41.013Z,101175.97
2022-11-05T03:34:08.792Z,101182.00
2022-11-05T03:36:41.389Z,101182.81
2022-11-05T03:39:11.189Z,101179.00
2022-11-05T03:41:43.142Z,101189.28
2022-11-05T03:44:11.843Z,101185.88
2022-11-05T03:46:44.282Z,101189.69
2022-11-05T03:49:12.901Z,101191.97
2022-11-05T03:51:48.556Z,101192.00
2022-11-05T03:54:15.269Z,101187.81
2022-11-05T03:56:50.968Z,101198.41
2022-11-05T03:59:17.738Z,101195.75
2022-11-05T04:01:44.240Z,101194.59
2022-11-05T04:04:10.876Z,101205.59
2022-11-05T04:06:55.985Z,101207.84
2022-11-05T04:09:44.018Z,101219.56
2022-11-05T04:12:29.373Z,101214.25
2022-11-05T04:14:55.816Z,101218.75
2022-11-05T04:17:22.256Z,101210.41
2022-11-05T04:20:07.281Z,101213.03
2022-11-05T04:22:53.589Z,101214.53
2022-11-05T04:25:21.564Z,101210.00
2022-11-05T04:27:48.454Z,101217.53
2022-11-05T04:30:19.435Z,101225.88
2022-11-05T04:33:15.863Z,101222.00
2022-11-05T04:35:46.374Z,101222.38
2022-11-05T04:38:18.000Z,101219.75
2022-11-05T04:40:45.414Z,101218.22
2022-11-05T04:43:18.627Z,101228.38
2022-11-05T04:45:45.649Z,101234.00
2022-11-05T04:48:12.756Z,101221.09
2022-11-05T04:50:39.382Z,101225.66
2022-11-05T04:53:05.823Z,101221.44
2022-11-05T04:55:32.235Z,101222.94
2022-11-05T04:57:58.640Z,101234.66
2022-11-05T05:00:25.155Z,101227.81
2022-11-05T05:02:51.687Z,101229.25
2022-11-05T05:05:18.255Z,101226.22
2022-11-05T05:07:44.758Z,101230.00
2022-11-05T05:10:14.026Z,101235.69
2022-11-05T05:12:40.441Z,101225.44
2022-11-05T05:15:07.340Z,101223.91
2022-11-05T05:17:34.096Z,101231.59
2022-11-05T05:20:19.172Z,101233.69
2022-11-05T05:22:52.278Z,101235.63
2022-11-05T05:25:18.691Z,101237.13
2022-11-05T05:27:45.127Z,101242.38
2022-11-05T05:30:11.955Z,101246.59
2022-11-05T05:32:38.341Z,101244.34
2022-11-05T05:35:05.170Z,101242.78
2022-11-05T05:37:31.610Z,101246.97
2022-11-05T05:39:58.021Z,101242.72
2022-11-05T05:42:24.431Z,101250.28
2022-11-05T05:44:50.861Z,101252.50
2022-11-05T05:47:17.288Z,101255.88
2022-11-05T05:49:43.655Z,101256.75
2022-11-05T05:52:10.059Z,101245.69
2022-11-05T05:54:42.322Z,101257.03
2022-11-05T05:57:09.325Z,101254.84
2022-11-05T05:59:35.951Z,101260.03
2022-11-05T06:02:02.518Z,101260.06
2022-11-05T06:04:29.005Z,101263.81
2022-11-05T06:06:55.595Z,101270.00
2022-11-05T06:09:22.167Z,101267.63
2022-11-05T06:11:48.621Z,101277.56
2022-11-05T06:14:14.991Z,101272.91
2022-11-05T06:16:41.489Z,101277.47
2022-11-05T06:19:08.051Z,101279.69
2022-11-05T06:21:34.708Z,101262.94
2022-11-05T06:24:03.082Z,101272.16
2022-11-05T06:26:29.763Z,101276.31
2022-11-05T06:28:56.595Z,101273.66
2022-11-05T06:31:23.320Z,101282.75
2022-11-05T06:33:49.726Z,101273.72
2022-11-05T06:36:17.493Z,101282.84
2022-11-05T06:38:44.014Z,101287.00
2022-11-05T06:41:10.901Z,101286.66
2022-11-05T06:43:38.051Z,101289.00
2022-11-05T06:46:04.629Z,101294.31
2022-11-05T06:48:31.036Z,101303.34
2022-11-05T06:50:57.544Z,101305.28
2022-11-05T06:53:24.361Z,101301.19
2022-11-05T06:55:50.844Z,101321.38
2022-11-05T06:58:17.234Z,101316.47
2022-11-05T07:00:43.638Z,101331.63
2022-11-05T07:03:11.551Z,101328.16
2022-11-05T07:05:46.933Z,101339.97
2022-11-05T07:08:13.595Z,101338.53
2022-11-05T07:10:40.185Z,101337.06
2022-11-05T07:13:08.453Z,101339.38
2022-11-05T07:15:35.960Z,101346.22
2022-11-05T07:18:02.678Z,101348.16
2022-11-05T07:20:33.508Z,101353.16
2022-11-05T07:23:08.751Z,101342.56
2022-11-05T07:25:35.633Z,101347.13
2022-11-05T07:28:03.175Z,101347.22
2022-11-05T07:30:30.304Z,101345.34
2022-11-05T07:32:56.844Z,101357.19
2022-11-05T07:35:23.568Z,101358.00
2022-11-05T07:37:51.333Z,101351.94
2022-11-05T07:40:21.552Z,101356.44
2022-11-05T07:42:52.775Z,101353.44
2022-11-05T07:45:19.715Z,101365.59
2022-11-05T07:47:48.782Z,101359.59
2022-11-05T07:50:16.769Z,101368.81
2022-11-05T07:52:43.576Z,101354.41
2022-11-05T07:55:10.737Z,101355.94
2022-11-05T07:57:50.708Z,101359.00
2022-11-05T08:00:20.243Z,101355.97
2022-11-05T08:03:19.823Z,101362.03
2022-11-05T08:05:47.689Z,101366.22
2022-11-05T08:08:16.637Z,101369.66
2022-11-05T08:10:43.294Z,101368.56
2022-11-05T08:13:10.990Z,101357.97
2022-11-05T08:15:37.912Z,101366.31
2022-11-05T08:18:07.230Z,101366.69
2022-11-05T08:20:34.843Z,101372.38
2022-11-05T08:23:01.262Z,101368.22
2022-11-05T08:25:28.082Z,101372.00
2022-11-05T08:28:05.404Z,101381.09
2022-11-05T08:30:32.595Z,101381.03
2022-11-05T08:33:01.657Z,101379.44
2022-11-05T08:35:28.649Z,101386.16
2022-11-05T08:38:00.606Z,101382.22
2022-11-05T08:40:27.280Z,101380.56
2022-11-05T08:42:56.697Z,101382.47
2022-11-05T08:45:23.149Z,101389.69
2022-11-05T08:47:49.574Z,101386.69
2022-11-05T08:50:16.785Z,101382.53
2022-11-05T08:52:43.181Z,101398.13
2022-11-05T08:55:09.846Z,101377.19
2022-11-05T08:57:36.240Z,101381.38
2022-11-05T09:00:02.887Z,101391.56
2022-11-05T09:02:29.376Z,101386.56
2022-11-05T09:04:55.839Z,101392.59
2022-11-05T09:07:22.900Z,101383.38
2022-11-05T09:09:49.374Z,101381.03
2022-11-05T09:12:15.838Z,101383.69
2022-11-05T09:14:42.414Z,101389.25
2022-11-05T09:17:19.599Z,101386.84
2022-11-05T09:19:46.503Z,101392.56
2022-11-05T09:22:13.418Z,101400.41
2022-11-05T09:24:41.005Z,101396.41
2022-11-05T09:27:10.348Z,101401.56
2022-11-05T09:29:36.983Z,101407.19
2022-11-05T09:32:03.524Z,101401.56
2022-11-05T09:34:30.114Z,101397.25
2022-11-05T09:36:57.220Z,101407.03
2022-11-05T09:39:24.002Z,101400.28
2022-11-05T09:41:57.356Z,101396.47
2022-11-05T09:44:59.394Z,101411.06
2022-11-05T09:48:01.954Z,101410.13
2022-11-05T09:50:34.325Z,101407.28
2022-11-05T09:53:01.785Z,101408.19
2022-11-05T09:55:33.037Z,101415.50
2022-11-05T09:58:01.852Z,101412.88
2022-11-05T10:00:30.167Z,101417.47
2022-11-05T10:03:14.318Z,101409.78
2022-11-05T10:05:41.039Z,101407.03
2022-11-05T10:08:16.988Z,101415.03
2022-11-05T10:10:47.905Z,101414.19
2022-11-05T10:13:25.599Z,101424.72
2022-11-05T10:15:58.706Z,101423.75
2022-11-05T10:18:30.703Z,101425.38
2022-11-05T10:20:57.245Z,101424.13
2022-11-05T10:23:25.964Z,101433.16
2022-11-05T10:25:55.901Z,101431.28
2022-11-05T10:28:26.019Z,101435.75
2022-11-05T10:31:06.435Z,101441.06
2022-11-05T10:33:36.103Z,101446.16
2022-11-05T10:36:07.062Z,101438.09
2022-11-05T10:38:33.835Z,101440.19
2022-11-05T10:41:25.181Z,101441.38
2022-11-05T10:43:56.736Z,101437.75
2022-11-05T10:46:29.015Z,101439.09
2022-11-05T10:49:29.127Z,101443.72
2022-11-05T10:51:57.352Z,101433.63
2022-11-05T10:54:26.583Z,101442.56
2022-11-05T10:56:53.092Z,101444.88
2022-11-05T10:59:25.487Z,101447.13
2022-11-05T11:02:01.933Z,101450.28
2022-11-05T11:04:34.895Z,101448.28
2022-11-05T11:07:04.249Z,101447.38
2022-11-05T11:15:16.883Z,101449.06
2022-11-05T11:17:43.283Z,101443.25
2022-11-05T11:20:28.577Z,101442.41
2022-11-05T11:23:12.738Z,101443.09
2022-11-05T11:25:48.314Z,101443.06
2022-11-05T11:28:48.226Z,101444.47
2022-11-05T11:31:21.866Z,101450.13
2022-11-05T11:33:52.016Z,101437.16
2022-11-05T11:36:20.000Z,101441.94
2022-11-05T11:38:46.591Z,101438.25
2022-11-05T11:41:27.947Z,101443.63
2022-11-05T11:43:58.008Z,101435.25
2022-11-05T11:46:24.485Z,101431.47
2022-11-05T11:48:51.344Z,101435.91
2022-11-05T11:51:25.253Z,101430.53
2022-11-05T11:53:56.996Z,101429.03
2022-11-05T11:56:23.425Z,101434.91
2022-11-05T11:58:54.759Z,101432.75
2022-11-05T12:01:43.685Z,101444.31
2022-11-05T12:04:22.282Z,101433.34
2022-11-05T12:07:17.076Z,101437.16
2022-11-05T12:10:08.297Z,101433.25
2022-11-05T12:13:02.030Z,101435.41
2022-11-05T12:15:51.989Z,101448.50
2022-11-05T12:18:44.995Z,101445.44
2022-11-05T12:21:51.285Z,101446.59
2022-11-05T12:24:37.633Z,101444.44
2022-11-05T12:27:25.949Z,101441.69
2022-11-05T12:29:59.829Z,101444.56
2022-11-05T12:32:35.505Z,101445.31
2022-11-05T12:35:23.230Z,101444.69
2022-11-05T12:38:12.068Z,101446.09
2022-11-05T12:41:10.955Z,101449.75
2022-11-05T12:44:04.261Z,101452.94
2022-11-05T12:47:01.177Z,101451.19
2022-11-05T12:49:57.619Z,101441.59
2022-11-05T12:52:42.435Z,101443.03
2022-11-05T12:55:20.641Z,101442.81
2022-11-05T12:57:49.349Z,101450.97
2022-11-05T13:00:20.314Z,101436.53
2022-11-05T13:02:54.748Z,101427.09
2022-11-05T13:05:25.912Z,101437.66
2022-11-05T13:08:00.089Z,101433.31
2022-11-05T13:10:35.437Z,101433.31
2022-11-05T13:13:26.767Z,101444.13
2022-11-05T13:15:56.527Z,101423.38
2022-11-05T13:18:41.003Z,101423.22
2022-11-05T13:21:08.928Z,101419.47
2022-11-05T13:23:40.991Z,101432.31
2022-11-05T13:26:35.022Z,101426.34
2022-11-05T13:29:09.439Z,101426.66
2022-11-05T13:31:43.586Z,101417.84
2022-11-05T13:34:11.770Z,101421.34
2022-11-05T13:37:00.098Z,101416.66
2022-11-05T13:39:31.116Z,101412.66
2022-11-05T13:42:04.824Z,101428.22
2022-11-05T13:44:40.245Z,101423.38
2022-11-05T13:47:37.766Z,101423.78
2022-11-05T13:50:26.048Z,101427.53
2022-11-05T13:53:14.571Z,101431.41
2022-11-05T13:55:56.950Z,101429.22
2022-11-05T13:58:37.679Z,101438.59
2022-11-05T14:01:10.345Z,101425.09
2022-11-05T14:03:37.222Z,101437.75
2022-11-05T14:06:06.084Z,101433.28
2022-11-05T14:08:41.786Z,101433.09
2022-11-05T14:11:21.751Z,101441.41
2022-11-05T14:13:51.952Z,101422.28
2022-11-05T14:16:22.870Z,101434.88
2022-11-05T14:19:12.628Z,101426.22
2022-11-05T14:21:52.240Z,101429.00
2022-11-05T14:24:21.631Z,101424.84
2022-11-05T14:27:00.297Z,101419.59
2022-11-05T14:29:42.940Z,101426.81
2022-11-05T14:32:21.319Z,101424.53
2022-11-05T14:35:07.952Z,101417.56
2022-11-05T14:37:41.169Z,101424.81
2022-11-05T14:40:31.620Z,101430.31
2022-11-05T14:43:03.898Z,101426.25
2022-11-05T14:45:38.875Z,101426.25
2022-11-05T14:48:07.351Z,101433.13
2022-11-05T14:50:39.788Z,101436.81
2022-11-05T14:53:12.683Z,101432.66
2022-11-05T14:55:41.441Z,101422.47
2022-11-05T14:58:24.817Z,101435.00
2022-11-05T15:00:51.878Z,101422.09
2022-11-05T15:03:32.152Z,101424.03
2022-11-05T15:06:20.551Z,101424.91
2022-11-05T15:08:50.041Z,101428.38
2022-11-05T15:11:31.318Z,101433.88
2022-11-05T15:14:00.864Z,101425.66
2022-11-05T15:16:36.824Z,101423.59
2022-11-05T15:19:05.093Z,101422.56
2022-11-05T15:21:33.397Z,101427.25
2022-11-05T15:24:01.235Z,101420.13
2022-11-05T15:26:36.844Z,101418.78
2022-11-05T15:29:19.554Z,101408.22
2022-11-05T15:31:46.481Z,101411.09
2022-11-05T15:34:30.976Z,101409.22
2022-11-05T15:37:23.752Z,101409.38
2022-11-05T15:39:52.304Z,101407.19
2022-11-05T15:42:22.383Z,101414.13
2022-11-05T15:44:56.866Z,101410.38
2022-11-05T15:47:30.909Z,101418.06
2022-11-05T15:50:14.712Z,101419.66
2022-11-05T15:52:49.855Z,101419.66
2022-11-05T15:55:24.102Z,101424.25
2022-11-05T15:58:03.592Z,101423.53
2022-11-05T16:00:32.802Z,101413.81
2022-11-05T16:03:30.782Z,101425.19
2022-11-05T16:05:57.851Z,101416.50
2022-11-05T16:08:28.885Z,101415.44
2022-11-05T16:10:58.835Z,101419.16
2022-11-05T16:13:28.326Z,101422.31
2022-11-05T16:15:56.246Z,101424.53
2022-11-05T16:18:24.542Z,101414.75
2022-11-05T16:21:02.539Z,101423.91
2022-11-05T16:23:52.929Z,101428.13
2022-11-05T16:29:31.568Z,101427.84
2022-11-05T16:32:04.470Z,101428.44
2022-11-05T16:34:41.120Z,101433.03
2022-11-05T16:37:12.548Z,101428.53
2022-11-05T16:39:39.029Z,101427.09
2022-11-05T16:42:24.338Z,101439.34
2022-11-05T16:44:52.032Z,101433.66
2022-11-05T16:47:19.515Z,101422.66
2022-11-05T16:49:48.080Z,101435.66
2022-11-05T16:52:14.685Z,101436.44
2022-11-05T16:54:41.459Z,101437.94
2022-11-05T16:57:14.517Z,101446.72
2022-11-05T16:59:40.933Z,101442.97
2022-11-05T17:02:10.894Z,101439.84
2022-11-05T17:04:37.547Z,101436.50
2022-11-05T17:07:03.975Z,101444.03
2022-11-05T17:09:31.827Z,101439.94
2022-11-05T17:12:00.669Z,101449.91
2022-11-05T17:14:27.077Z,101449.56
2022-11-05T17:16:57.109Z,101451.88
2022-11-05T17:19:23.529Z,101456.50
2022-11-05T17:21:50.103Z,101447.81
2022-11-05T17:24:16.678Z,101444.72
2022-11-05T17:26:43.192Z,101441.44
2022-11-05T17:29:09.771Z,101437.19
2022-11-05T17:31:36.349Z,101448.22
2022-11-05T17:34:04.056Z,101456.53
2022-11-05T17:36:30.486Z,101451.91
2022-11-05T17:38:56.892Z,101445.88
2022-11-05T17:41:23.924Z,101454.91
2022-11-05T17:43:55.840Z,101431.44
2022-11-05T17:46:23.005Z,101447.31
2022-11-05T17:48:49.442Z,101448.88
2022-11-05T17:51:18.435Z,101450.38
2022-11-05T17:53:46.037Z,101439.88
2022-11-05T17:56:15.885Z,101450.38
2022-11-05T17:58:44.880Z,101443.53
2022-11-05T18:01:24.979Z,101432.84
2022-11-05T18:03:51.528Z,101443.56
2022-11-05T18:06:18.036Z,101441.16
2022-11-05T18:08:44.683Z,101439.94
2022-11-05T18:11:11.350Z,101434.19
2022-11-05T18:13:37.803Z,101434.28
2022-11-05T18:16:04.376Z,101443.78
2022-11-05T18:18:30.817Z,101433.13
2022-11-05T18:20:58.243Z,101439.53
2022-11-05T18:23:24.762Z,101432.66
2022-11-05T18:25:51.193Z,101441.38
2022-11-05T18:28:17.620Z,101425.34
2022-11-05T18:30:44.496Z,101435.59
2022-11-05T18:33:11.333Z,101438.25
2022-11-05T18:35:43.577Z,101431.13
2022-11-05T18:38:10.732Z,101431.91
2022-11-05T18:40:37.141Z,101440.31
2022-11-05T18:43:03.568Z,101437.66
2022-11-05T18:45:31.754Z,101424.72
2022-11-05T18:48:00.309Z,101431.16
2022-11-05T18:50:27.165Z,101424.38
2022-11-05T18:52:53.613Z,101421.31
2022-11-05T18:55:20.220Z,101422.78
2022-11-05T18:57:46.696Z,101425.81
2022-11-05T19:00:13.762Z,101419.03
2022-11-05T19:02:40.430Z,101419.41
2022-11-05T19:05:27.876Z,101424.00
2022-11-05T19:07:54.116Z,101422.06
2022-11-05T19:10:20.766Z,101427.41
2022-11-05T19:12:47.253Z,101433.53
2022-11-05T19:15:13.704Z,101432.00
2022-11-05T19:17:40.135Z,101432.09
2022-11-05T19:20:07.512Z,101431.38
2022-11-05T19:22:34.057Z,101423.69
2022-11-05T19:25:00.530Z,101429.41
2022-11-05T19:27:27.234Z,101424.50
2022-11-05T19:29:53.882Z,101417.69
2022-11-05T19:32:21.217Z,101416.84
2022-11-05T19:34:47.642Z,101431.22
2022-11-05T19:37:14.075Z,101422.06
2022-11-05T19:39:41.287Z,101426.66
2022-11-05T19:42:07.829Z,101425.19
2022-11-05T19:44:34.290Z,101419.50
2022-11-05T19:47:00.979Z,101413.75
2022-11-05T19:49:28.466Z,101402.34
2022-11-05T19:51:55.997Z,101404.50
2022-11-05T19:54:22.440Z,101412.19
2022-11-05T19:56:52.026Z,101415.97
2022-11-05T19:59:18.607Z,101406.06
2022-11-05T20:01:45.141Z,101415.13
2022-11-05T20:04:12.142Z,101408.66
2022-11-05T20:06:40.133Z,101417.09
2022-11-05T20:09:24.500Z,101412.19
2022-11-05T20:11:53.739Z,101410.31
2022-11-05T20:14:20.556Z,101409.56
2022-11-05T20:16:47.214Z,101413.00
2022-11-05T20:19:15.528Z,101412.38
2022-11-05T20:21:42.239Z,101416.22
2022-11-05T20:24:11.121Z,101423.16
2022-11-05T20:26:38.406Z,101415.84
2022-11-05T20:29:04.856Z,101419.19
2022-11-05T20:31:31.288Z,101418.03
2022-11-05T20:33:57.857Z,101400.16
2022-11-05T20:36:25.536Z,101398.13
2022-11-05T20:38:58.112Z,101411.38
2022-11-05T20:41:26.044Z,101416.34
2022-11-05T20:43:52.720Z,101424.38
2022-11-05T20:46:21.035Z,101418.34
2022-11-05T20:48:47.969Z,101407.00
2022-11-05T20:51:20.041Z,101406.25
2022-11-05T20:53:46.693Z,101413.84
2022-11-05T20:56:27.692Z,101429.84
2022-11-05T20:58:58.682Z,101425.97
2022-11-05T21:01:26.909Z,101420.34
2022-11-05T21:03:54.734Z,101419.84
2022-11-05T21:06:21.294Z,101406.13
2022-11-05T21:08:48.568Z,101417.50
2022-11-05T21:11:15.010Z,101413.28
2022-11-05T21:13:41.659Z,101403.00
2022-11-05T21:16:11.788Z,101418.72
2022-11-05T21:18:40.570Z,101416.97
2022-11-05T21:21:09.384Z,101419.25
2022-11-05T21:23:35.969Z,101412.88
2022-11-05T21:26:06.493Z,101399.13
2022-11-05T21:28:33.641Z,101404.16
2022-11-05T21:31:02.522Z,101403.63
2022-11-05T21:33:29.571Z,101387.94
2022-11-05T21:35:57.666Z,101391.31
2022-11-05T21:38:24.558Z,101379.59
2022-11-05T21:40:51.048Z,101395.56
2022-11-05T21:43:17.773Z,101388.66
2022-11-05T21:45:48.096Z,101380.34
2022-11-05T21:48:15.703Z,101389.53
2022-11-05T21:51:01.288Z,101380.28
2022-11-05T21:53:46.655Z,101384.84
2022-11-05T21:56:43.057Z,101381.78
2022-11-05T21:59:35.835Z,101374.19
2022-11-05T22:02:02.884Z,101373.34
2022-11-05T22:04:34.917Z,101369.53
2022-11-05T22:07:01.865Z,101369.66
2022-11-05T22:09:31.437Z,101363.66
2022-11-05T22:11:58.265Z,101362.41
2022-11-05T22:14:24.866Z,101367.00
2022-11-05T22:16:51.498Z,101364.34
2022-11-05T22:19:18.215Z,101360.53
2022-11-05T22:21:44.628Z,101356.81
2022-11-05T22:24:11.038Z,101358.25
2022-11-05T22:26:38.390Z,101351.38
2022-11-05T22:29:05.860Z,101347.19
2022-11-05T22:31:36.176Z,101351.66
2022-11-05T22:34:04.249Z,101355.75
2022-11-05T22:36:30.649Z,101346.53
2022-11-05T22:38:57.397Z,101344.25
2022-11-05T22:41:24.035Z,101339.97
2022-11-05T22:43:50.571Z,101342.72
2022-11-05T22:46:20.274Z,101342.91
2022-11-05T22:48:47.092Z,101339.47
2022-11-05T22:51:15.994Z,101333.28
2022-11-05T22:53:43.491Z,101335.09
2022-11-05T22:56:13.365Z,101324.41
2022-11-05T22:58:40.210Z,101335.78
2022-11-05T23:01:08.160Z,101344.16
2022-11-05T23:03:35.176Z,101335.78
2022-11-05T23:06:27.219Z,101335.09
2022-11-05T23:09:12.482Z,101336.53
2022-11-05T23:11:40.904Z,101347.28
2022-11-05T23:14:12.266Z,101341.94
2022-11-05T23:16:57.257Z,101338.44
2022-11-05T23:19:42.837Z,101333.06
2022-11-05T23:22:39.967Z,101334.84
2022-11-05T23:25:09.650Z,101334.88
2022-11-05T23:27:37.822Z,101335.97
2022-11-05T23:30:14.553Z,101340.28
2022-11-05T23:32:41.003Z,101332.56
2022-11-05T23:35:07.783Z,101336.22
2022-11-05T23:37:53.023Z,101332.47
2022-11-05T23:40:22.401Z,101327.16
2022-11-05T23:43:07.489Z,101300.63
2022-11-05T23:45:49.552Z,101318.03
2022-11-05T23:48:33.170Z,101318.03
2022-11-05T23:51:04.481Z,101315.59
2022-11-05T23:53:33.015Z,101297.50
2022-11-05T23:56:01.915Z,101301.91
2022-11-05T23:58:28.542Z,101302.63
